sensor_id;sensor_type;location;lat;lon;timestamp;temperature;humidity
14401;DHT22;7285;50.894;5.462;2023-06-22T00:02:19;21.00;99.90
14401;DHT22;7285;50.894;5.462;2023-06-22T00:04:46;21.00;99.90
14401;DHT22;7285;50.894;5.462;2023-06-22T00:07:13;21.00;99.90
14401;DHT22;7285;50.894;5.462;2023-06-22T00:09:41;21.00;99.90
14401;DHT22;7285;50.894;5.462;2023-06-22T00:12:10;21.00;99.90
14401;DHT22;7285;50.894;5.462;2023-06-22T00:14:37;21.00;99.90
14401;DHT22;7285;50.894;5.462;2023-06-22T00:17:04;20.90;99.90
14401;DHT22;7285;50.894;5.462;2023-06-22T00:19:31;20.90;99.90
14401;DHT22;7285;50.894;5.462;2023-06-22T00:22:00;20.90;99.90
14401;DHT22;7285;50.894;5.462;2023-06-22T00:24:29;20.90;99.90
14401;DHT22;7285;50.894;5.462;2023-06-22T00:26:55;20.80;99.90
14401;DHT22;7285;50.894;5.462;2023-06-22T00:29:24;20.90;99.90
14401;DHT22;7285;50.894;5.462;2023-06-22T00:31:51;20.90;99.90
14401;DHT22;7285;50.894;5.462;2023-06-22T00:34:18;20.90;99.90
14401;DHT22;7285;50.894;5.462;2023-06-22T00:36:46;20.90;99.90
14401;DHT22;7285;50.894;5.462;2023-06-22T00:39:13;20.90;99.90
14401;DHT22;7285;50.894;5.462;2023-06-22T00:41:40;20.80;99.90
14401;DHT22;7285;50.894;5.462;2023-06-22T00:44:07;20.90;99.90
14401;DHT22;7285;50.894;5.462;2023-06-22T00:46:35;20.90;99.90
14401;DHT22;7285;50.894;5.462;2023-06-22T00:49:02;20.90;99.90
14401;DHT22;7285;50.894;5.462;2023-06-22T00:51:31;20.90;99.90
14401;DHT22;7285;50.894;5.462;2023-06-22T00:53:58;20.90;99.90
14401;DHT22;7285;50.894;5.462;2023-06-22T00:56:25;20.90;99.90
14401;DHT22;7285;50.894;5.462;2023-06-22T00:58:55;20.90;99.90
14401;DHT22;7285;50.894;5.462;2023-06-22T01:01:24;20.90;99.90
14401;DHT22;7285;50.894;5.462;2023-06-22T01:03:53;20.90;99.90
14401;DHT22;7285;50.894;5.462;2023-06-22T01:06:29;20.90;99.90
14401;DHT22;7285;50.894;5.462;2023-06-22T01:09:08;20.90;99.90
14401;DHT22;7285;50.894;5.462;2023-06-22T01:11:44;20.90;99.90
14401;DHT22;7285;50.894;5.462;2023-06-22T01:14:15;20.80;99.90
14401;DHT22;7285;50.894;5.462;2023-06-22T01:16:46;20.80;99.90
14401;DHT22;7285;50.894;5.462;2023-06-22T01:19:32;20.80;99.90
14401;DHT22;7285;50.894;5.462;2023-06-22T01:22:02;20.70;99.90
14401;DHT22;7285;50.894;5.462;2023-06-22T01:24:44;20.70;99.90
14401;DHT22;7285;50.894;5.462;2023-06-22T01:27:21;20.60;99.90
14401;DHT22;7285;50.894;5.462;2023-06-22T01:29:56;20.60;99.90
14401;DHT22;7285;50.894;5.462;2023-06-22T01:32:27;20.60;99.90
14401;DHT22;7285;50.894;5.462;2023-06-22T01:34:55;20.60;99.90
14401;DHT22;7285;50.894;5.462;2023-06-22T01:37:22;20.60;99.90
14401;DHT22;7285;50.894;5.462;2023-06-22T01:39:49;20.50;99.90
14401;DHT22;7285;50.894;5.462;2023-06-22T01:42:17;20.50;99.90
14401;DHT22;7285;50.894;5.462;2023-06-22T01:44:44;20.50;99.90
14401;DHT22;7285;50.894;5.462;2023-06-22T01:47:13;20.50;99.90
14401;DHT22;7285;50.894;5.462;2023-06-22T01:49:40;20.50;99.90
14401;DHT22;7285;50.894;5.462;2023-06-22T01:52:07;20.50;99.90
14401;DHT22;7285;50.894;5.462;2023-06-22T01:54:34;20.50;99.90
14401;DHT22;7285;50.894;5.462;2023-06-22T01:57:01;20.50;99.90
14401;DHT22;7285;50.894;5.462;2023-06-22T01:59:33;20.40;99.90
14401;DHT22;7285;50.894;5.462;2023-06-22T02:02:04;20.40;99.90
14401;DHT22;7285;50.894;5.462;2023-06-22T02:04:37;20.40;99.90
14401;DHT22;7285;50.894;5.462;2023-06-22T02:07:14;20.40;99.90
14401;DHT22;7285;50.894;5.462;2023-06-22T02:09:44;20.40;99.90
14401;DHT22;7285;50.894;5.462;2023-06-22T02:12:15;20.40;99.90
14401;DHT22;7285;50.894;5.462;2023-06-22T02:14:43;20.40;99.90
14401;DHT22;7285;50.894;5.462;2023-06-22T02:17:12;20.30;99.90
14401;DHT22;7285;50.894;5.462;2023-06-22T02:19:42;20.40;99.90
14401;DHT22;7285;50.894;5.462;2023-06-22T02:22:09;20.40;99.90
14401;DHT22;7285;50.894;5.462;2023-06-22T02:24:36;20.40;99.90
14401;DHT22;7285;50.894;5.462;2023-06-22T02:27:03;20.40;99.90
14401;DHT22;7285;50.894;5.462;2023-06-22T02:29:32;20.30;99.90
14401;DHT22;7285;50.894;5.462;2023-06-22T02:31:59;20.30;99.90
14401;DHT22;7285;50.894;5.462;2023-06-22T02:34:26;20.30;1.00
14401;DHT22;7285;50.894;5.462;2023-06-22T02:36:55;20.30;99.90
14401;DHT22;7285;50.894;5.462;2023-06-22T02:39:22;20.30;1.00
14401;DHT22;7285;50.894;5.462;2023-06-22T02:41:49;20.30;1.00
14401;DHT22;7285;50.894;5.462;2023-06-22T02:44:17;20.30;1.00
14401;DHT22;7285;50.894;5.462;2023-06-22T02:46:44;20.30;1.00
14401;DHT22;7285;50.894;5.462;2023-06-22T02:49:11;20.30;1.00
14401;DHT22;7285;50.894;5.462;2023-06-22T02:51:39;20.30;1.00
14401;DHT22;7285;50.894;5.462;2023-06-22T02:54:07;20.30;1.00
14401;DHT22;7285;50.894;5.462;2023-06-22T02:56:34;20.20;1.00
14401;DHT22;7285;50.894;5.462;2023-06-22T02:59:02;20.30;1.00
14401;DHT22;7285;50.894;5.462;2023-06-22T03:01:29;20.20;1.00
14401;DHT22;7285;50.894;5.462;2023-06-22T03:04:03;20.20;1.00
14401;DHT22;7285;50.894;5.462;2023-06-22T03:06:30;20.20;1.00
14401;DHT22;7285;50.894;5.462;2023-06-22T03:08:59;20.20;1.00
14401;DHT22;7285;50.894;5.462;2023-06-22T03:11:27;20.20;1.00
14401;DHT22;7285;50.894;5.462;2023-06-22T03:13:54;20.20;1.00
14401;DHT22;7285;50.894;5.462;2023-06-22T03:16:21;20.10;1.00
14401;DHT22;7285;50.894;5.462;2023-06-22T03:18:48;20.10;1.00
14401;DHT22;7285;50.894;5.462;2023-06-22T03:21:15;20.10;1.00
14401;DHT22;7285;50.894;5.462;2023-06-22T03:23:42;20.10;1.00
14401;DHT22;7285;50.894;5.462;2023-06-22T03:26:09;20.10;1.00
14401;DHT22;7285;50.894;5.462;2023-06-22T03:28:38;20.10;1.00
14401;DHT22;7285;50.894;5.462;2023-06-22T03:31:04;20.10;1.00
14401;DHT22;7285;50.894;5.462;2023-06-22T03:33:32;20.10;1.00
14401;DHT22;7285;50.894;5.462;2023-06-22T03:35:59;20.10;1.00
14401;DHT22;7285;50.894;5.462;2023-06-22T03:38:26;20.10;1.00
14401;DHT22;7285;50.894;5.462;2023-06-22T03:40:53;20.10;1.00
14401;DHT22;7285;50.894;5.462;2023-06-22T03:43:20;20.10;1.00
14401;DHT22;7285;50.894;5.462;2023-06-22T03:45:48;20.10;1.00
14401;DHT22;7285;50.894;5.462;2023-06-22T03:48:15;20.10;1.00
14401;DHT22;7285;50.894;5.462;2023-06-22T03:50:42;20.10;1.00
14401;DHT22;7285;50.894;5.462;2023-06-22T03:53:09;20.10;1.00
14401;DHT22;7285;50.894;5.462;2023-06-22T03:55:36;20.10;1.00
14401;DHT22;7285;50.894;5.462;2023-06-22T03:58:03;20.10;1.00
14401;DHT22;7285;50.894;5.462;2023-06-22T04:00:31;20.10;1.00
14401;DHT22;7285;50.894;5.462;2023-06-22T04:02:59;20.10;1.00
14401;DHT22;7285;50.894;5.462;2023-06-22T04:05:26;20.10;1.00
14401;DHT22;7285;50.894;5.462;2023-06-22T04:07:53;20.00;1.00
14401;DHT22;7285;50.894;5.462;2023-06-22T04:10:20;20.00;1.00
14401;DHT22;7285;50.894;5.462;2023-06-22T04:12:47;20.00;1.00
14401;DHT22;7285;50.894;5.462;2023-06-22T04:15:14;20.00;99.90
14401;DHT22;7285;50.894;5.462;2023-06-22T04:17:41;20.00;99.90
14401;DHT22;7285;50.894;5.462;2023-06-22T04:20:10;19.90;1.00
14401;DHT22;7285;50.894;5.462;2023-06-22T04:22:37;19.80;1.00
14401;DHT22;7285;50.894;5.462;2023-06-22T04:25:06;19.70;99.90
14401;DHT22;7285;50.894;5.462;2023-06-22T04:27:34;19.70;1.00
14401;DHT22;7285;50.894;5.462;2023-06-22T04:30:03;19.60;99.90
14401;DHT22;7285;50.894;5.462;2023-06-22T04:32:30;19.50;1.00
14401;DHT22;7285;50.894;5.462;2023-06-22T04:34:57;19.40;1.00
14401;DHT22;7285;50.894;5.462;2023-06-22T04:37:27;19.10;99.90
14401;DHT22;7285;50.894;5.462;2023-06-22T04:39:54;18.90;99.90
14401;DHT22;7285;50.894;5.462;2023-06-22T04:42:21;18.80;75.40
14401;DHT22;7285;50.894;5.462;2023-06-22T04:44:48;18.80;1.00
14401;DHT22;7285;50.894;5.462;2023-06-22T04:47:15;18.70;99.90
14401;DHT22;7285;50.894;5.462;2023-06-22T04:49:42;18.60;1.00
14401;DHT22;7285;50.894;5.462;2023-06-22T04:52:10;18.60;99.90
14401;DHT22;7285;50.894;5.462;2023-06-22T04:54:39;18.60;99.90
14401;DHT22;7285;50.894;5.462;2023-06-22T04:57:14;18.60;1.00
14401;DHT22;7285;50.894;5.462;2023-06-22T04:59:41;18.50;1.00
14401;DHT22;7285;50.894;5.462;2023-06-22T05:02:08;18.50;1.00
14401;DHT22;7285;50.894;5.462;2023-06-22T05:04:35;18.60;1.00
14401;DHT22;7285;50.894;5.462;2023-06-22T05:07:04;18.60;1.00
14401;DHT22;7285;50.894;5.462;2023-06-22T05:09:31;18.60;1.00
14401;DHT22;7285;50.894;5.462;2023-06-22T05:12:01;18.70;1.00
14401;DHT22;7285;50.894;5.462;2023-06-22T05:14:29;18.60;1.00
14401;DHT22;7285;50.894;5.462;2023-06-22T05:16:56;18.60;1.00
14401;DHT22;7285;50.894;5.462;2023-06-22T05:19:24;18.60;50.30
14401;DHT22;7285;50.894;5.462;2023-06-22T05:21:59;18.70;97.90
14401;DHT22;7285;50.894;5.462;2023-06-22T05:24:26;18.60;99.90
14401;DHT22;7285;50.894;5.462;2023-06-22T05:26:52;18.70;99.90
14401;DHT22;7285;50.894;5.462;2023-06-22T05:29:21;18.60;99.90
14401;DHT22;7285;50.894;5.462;2023-06-22T05:31:48;18.70;99.90
14401;DHT22;7285;50.894;5.462;2023-06-22T05:34:15;18.70;99.90
14401;DHT22;7285;50.894;5.462;2023-06-22T05:36:42;18.50;99.90
14401;DHT22;7285;50.894;5.462;2023-06-22T05:39:13;18.60;99.90
14401;DHT22;7285;50.894;5.462;2023-06-22T05:41:40;18.70;99.90
14401;DHT22;7285;50.894;5.462;2023-06-22T05:44:07;18.60;99.90
14401;DHT22;7285;50.894;5.462;2023-06-22T05:46:35;18.60;99.90
14401;DHT22;7285;50.894;5.462;2023-06-22T05:49:02;18.60;99.90
14401;DHT22;7285;50.894;5.462;2023-06-22T05:51:29;18.70;99.90
14401;DHT22;7285;50.894;5.462;2023-06-22T05:53:56;18.70;99.90
14401;DHT22;7285;50.894;5.462;2023-06-22T05:56:23;18.70;99.90
14401;DHT22;7285;50.894;5.462;2023-06-22T05:58:50;18.60;99.90
14401;DHT22;7285;50.894;5.462;2023-06-22T06:01:17;18.70;99.90
14401;DHT22;7285;50.894;5.462;2023-06-22T06:03:45;18.70;99.90
14401;DHT22;7285;50.894;5.462;2023-06-22T06:06:12;18.70;99.90
14401;DHT22;7285;50.894;5.462;2023-06-22T06:08:39;18.70;99.90
14401;DHT22;7285;50.894;5.462;2023-06-22T06:11:06;18.80;99.90
14401;DHT22;7285;50.894;5.462;2023-06-22T06:13:33;18.90;99.90
14401;DHT22;7285;50.894;5.462;2023-06-22T06:16:00;18.90;99.90
14401;DHT22;7285;50.894;5.462;2023-06-22T06:18:27;18.80;99.90
14401;DHT22;7285;50.894;5.462;2023-06-22T06:20:55;18.90;99.90
14401;DHT22;7285;50.894;5.462;2023-06-22T06:23:22;19.00;99.90
14401;DHT22;7285;50.894;5.462;2023-06-22T06:25:49;18.90;99.90
14401;DHT22;7285;50.894;5.462;2023-06-22T06:28:16;19.00;99.90
14401;DHT22;7285;50.894;5.462;2023-06-22T06:30:43;19.00;99.90
14401;DHT22;7285;50.894;5.462;2023-06-22T06:33:10;19.10;99.90
14401;DHT22;7285;50.894;5.462;2023-06-22T06:35:37;19.10;99.90
14401;DHT22;7285;50.894;5.462;2023-06-22T06:38:05;19.10;99.90
14401;DHT22;7285;50.894;5.462;2023-06-22T06:40:32;19.10;99.90
14401;DHT22;7285;50.894;5.462;2023-06-22T06:42:59;19.30;99.90
14401;DHT22;7285;50.894;5.462;2023-06-22T06:45:26;19.30;99.90
14401;DHT22;7285;50.894;5.462;2023-06-22T06:47:54;19.40;71.80
14401;DHT22;7285;50.894;5.462;2023-06-22T06:50:21;19.50;46.70
14401;DHT22;7285;50.894;5.462;2023-06-22T06:52:48;19.60;7.40
14401;DHT22;7285;50.894;5.462;2023-06-22T06:55:17;19.70;1.00
14401;DHT22;7285;50.894;5.462;2023-06-22T06:57:45;19.80;1.00
14401;DHT22;7285;50.894;5.462;2023-06-22T07:00:14;19.80;1.00
14401;DHT22;7285;50.894;5.462;2023-06-22T07:02:43;19.90;1.00
14401;DHT22;7285;50.894;5.462;2023-06-22T07:05:11;20.10;1.00
14401;DHT22;7285;50.894;5.462;2023-06-22T07:07:38;20.30;99.90
14401;DHT22;7285;50.894;5.462;2023-06-22T07:10:06;20.30;1.00
14401;DHT22;7285;50.894;5.462;2023-06-22T07:12:35;20.50;1.00
14401;DHT22;7285;50.894;5.462;2023-06-22T07:15:03;20.80;1.00
14401;DHT22;7285;50.894;5.462;2023-06-22T07:17:30;21.00;1.00
14401;DHT22;7285;50.894;5.462;2023-06-22T07:19:58;21.20;1.00
14401;DHT22;7285;50.894;5.462;2023-06-22T07:22:25;21.30;1.00
14401;DHT22;7285;50.894;5.462;2023-06-22T07:24:54;21.30;1.00
14401;DHT22;7285;50.894;5.462;2023-06-22T07:27:21;21.30;1.00
14401;DHT22;7285;50.894;5.462;2023-06-22T07:29:50;21.40;99.90
14401;DHT22;7285;50.894;5.462;2023-06-22T07:32:19;21.50;98.90
14401;DHT22;7285;50.894;5.462;2023-06-22T07:34:46;21.50;1.00
14401;DHT22;7285;50.894;5.462;2023-06-22T07:37:14;21.60;1.00
14401;DHT22;7285;50.894;5.462;2023-06-22T07:39:40;21.50;99.90
14401;DHT22;7285;50.894;5.462;2023-06-22T07:42:08;21.50;99.90
14401;DHT22;7285;50.894;5.462;2023-06-22T07:44:35;21.50;99.90
14401;DHT22;7285;50.894;5.462;2023-06-22T07:47:03;21.50;1.00
14401;DHT22;7285;50.894;5.462;2023-06-22T07:49:30;21.60;1.00
14401;DHT22;7285;50.894;5.462;2023-06-22T07:51:57;21.60;1.00
14401;DHT22;7285;50.894;5.462;2023-06-22T07:54:24;21.80;1.00
14401;DHT22;7285;50.894;5.462;2023-06-22T07:56:51;21.80;99.90
14401;DHT22;7285;50.894;5.462;2023-06-22T07:59:19;22.00;99.90
14401;DHT22;7285;50.894;5.462;2023-06-22T08:01:46;22.10;99.90
14401;DHT22;7285;50.894;5.462;2023-06-22T08:04:16;22.20;1.00
14401;DHT22;7285;50.894;5.462;2023-06-22T08:06:43;22.30;1.00
14401;DHT22;7285;50.894;5.462;2023-06-22T08:09:10;22.40;99.90
14401;DHT22;7285;50.894;5.462;2023-06-22T08:11:37;22.50;99.90
14401;DHT22;7285;50.894;5.462;2023-06-22T08:14:04;22.50;1.00
14401;DHT22;7285;50.894;5.462;2023-06-22T08:16:31;22.40;1.00
14401;DHT22;7285;50.894;5.462;2023-06-22T08:18:58;22.50;93.10
14401;DHT22;7285;50.894;5.462;2023-06-22T08:21:26;22.50;1.00
14401;DHT22;7285;50.894;5.462;2023-06-22T08:23:53;22.40;1.00
14401;DHT22;7285;50.894;5.462;2023-06-22T08:26:20;22.50;6.10
14401;DHT22;7285;50.894;5.462;2023-06-22T08:28:47;22.50;1.00
14401;DHT22;7285;50.894;5.462;2023-06-22T08:31:14;22.60;1.00
14401;DHT22;7285;50.894;5.462;2023-06-22T08:33:41;22.70;1.00
14401;DHT22;7285;50.894;5.462;2023-06-22T08:36:11;22.80;1.00
14401;DHT22;7285;50.894;5.462;2023-06-22T08:38:40;23.00;99.90
14401;DHT22;7285;50.894;5.462;2023-06-22T08:41:07;23.10;99.90
14401;DHT22;7285;50.894;5.462;2023-06-22T08:43:34;23.60;99.90
14401;DHT22;7285;50.894;5.462;2023-06-22T08:46:01;24.00;99.90
14401;DHT22;7285;50.894;5.462;2023-06-22T08:48:29;24.30;99.90
14401;DHT22;7285;50.894;5.462;2023-06-22T08:50:56;24.30;1.00
14401;DHT22;7285;50.894;5.462;2023-06-22T08:53:23;24.30;1.00
14401;DHT22;7285;50.894;5.462;2023-06-22T08:55:51;24.10;1.00
14401;DHT22;7285;50.894;5.462;2023-06-22T08:58:18;24.10;1.00
14401;DHT22;7285;50.894;5.462;2023-06-22T09:00:46;24.10;1.00
14401;DHT22;7285;50.894;5.462;2023-06-22T09:03:13;24.00;1.00
14401;DHT22;7285;50.894;5.462;2023-06-22T09:05:40;24.00;1.00
14401;DHT22;7285;50.894;5.462;2023-06-22T09:08:07;23.90;1.00
14401;DHT22;7285;50.894;5.462;2023-06-22T09:10:34;23.80;1.00
14401;DHT22;7285;50.894;5.462;2023-06-22T09:13:02;23.70;1.00
14401;DHT22;7285;50.894;5.462;2023-06-22T09:15:29;23.80;1.00
14401;DHT22;7285;50.894;5.462;2023-06-22T09:17:56;23.80;1.00
14401;DHT22;7285;50.894;5.462;2023-06-22T09:20:24;23.80;1.00
14401;DHT22;7285;50.894;5.462;2023-06-22T09:22:51;23.70;1.00
14401;DHT22;7285;50.894;5.462;2023-06-22T09:25:18;23.60;1.00
14401;DHT22;7285;50.894;5.462;2023-06-22T09:27:46;23.70;1.00
14401;DHT22;7285;50.894;5.462;2023-06-22T09:30:14;23.70;1.00
14401;DHT22;7285;50.894;5.462;2023-06-22T09:32:41;23.60;1.00
14401;DHT22;7285;50.894;5.462;2023-06-22T09:35:09;23.50;1.00
14401;DHT22;7285;50.894;5.462;2023-06-22T09:37:38;23.40;1.00
14401;DHT22;7285;50.894;5.462;2023-06-22T09:40:06;23.40;1.00
14401;DHT22;7285;50.894;5.462;2023-06-22T09:42:37;23.40;1.00
14401;DHT22;7285;50.894;5.462;2023-06-22T09:45:04;23.30;1.00
14401;DHT22;7285;50.894;5.462;2023-06-22T09:47:33;23.20;1.00
14401;DHT22;7285;50.894;5.462;2023-06-22T09:50:00;23.10;1.00
14401;DHT22;7285;50.894;5.462;2023-06-22T09:52:26;23.00;1.00
14401;DHT22;7285;50.894;5.462;2023-06-22T09:54:53;23.00;2.00
14401;DHT22;7285;50.894;5.462;2023-06-22T09:57:20;23.00;1.00
14401;DHT22;7285;50.894;5.462;2023-06-22T09:59:47;23.00;99.90
14401;DHT22;7285;50.894;5.462;2023-06-22T10:02:14;22.90;99.90
14401;DHT22;7285;50.894;5.462;2023-06-22T10:04:42;22.80;1.00
14401;DHT22;7285;50.894;5.462;2023-06-22T10:07:09;22.70;1.00
14401;DHT22;7285;50.894;5.462;2023-06-22T10:09:36;22.40;99.90
14401;DHT22;7285;50.894;5.462;2023-06-22T10:12:03;22.30;99.90
14401;DHT22;7285;50.894;5.462;2023-06-22T10:14:30;22.20;1.00
14401;DHT22;7285;50.894;5.462;2023-06-22T10:16:57;22.10;1.00
14401;DHT22;7285;50.894;5.462;2023-06-22T10:19:24;22.00;99.90
14401;DHT22;7285;50.894;5.462;2023-06-22T10:21:52;21.80;1.00
14401;DHT22;7285;50.894;5.462;2023-06-22T10:24:20;21.80;1.00
14401;DHT22;7285;50.894;5.462;2023-06-22T10:26:47;21.70;1.00
14401;DHT22;7285;50.894;5.462;2023-06-22T10:29:14;21.50;1.00
14401;DHT22;7285;50.894;5.462;2023-06-22T10:31:41;21.50;1.00
14401;DHT22;7285;50.894;5.462;2023-06-22T10:34:08;21.40;1.00
14401;DHT22;7285;50.894;5.462;2023-06-22T10:36:35;21.40;1.00
14401;DHT22;7285;50.894;5.462;2023-06-22T10:39:04;21.30;99.90
14401;DHT22;7285;50.894;5.462;2023-06-22T10:41:31;21.20;99.90
14401;DHT22;7285;50.894;5.462;2023-06-22T10:43:58;21.20;1.00
14401;DHT22;7285;50.894;5.462;2023-06-22T10:46:25;21.20;1.00
14401;DHT22;7285;50.894;5.462;2023-06-22T10:48:53;21.10;1.00
14401;DHT22;7285;50.894;5.462;2023-06-22T10:51:22;21.10;1.00
14401;DHT22;7285;50.894;5.462;2023-06-22T10:53:49;21.20;1.00
14401;DHT22;7285;50.894;5.462;2023-06-22T10:56:20;21.30;1.00
14401;DHT22;7285;50.894;5.462;2023-06-22T10:58:47;21.30;17.90
14401;DHT22;7285;50.894;5.462;2023-06-22T11:01:15;21.60;50.90
14401;DHT22;7285;50.894;5.462;2023-06-22T11:03:43;21.70;27.80
14401;DHT22;7285;50.894;5.462;2023-06-22T11:06:09;22.00;20.60
14401;DHT22;7285;50.894;5.462;2023-06-22T11:08:36;22.00;1.00
14401;DHT22;7285;50.894;5.462;2023-06-22T11:11:03;22.00;1.00
14401;DHT22;7285;50.894;5.462;2023-06-22T11:13:32;21.70;1.00
14401;DHT22;7285;50.894;5.462;2023-06-22T11:15:58;21.80;1.00
14401;DHT22;7285;50.894;5.462;2023-06-22T11:18:25;21.70;1.00
14401;DHT22;7285;50.894;5.462;2023-06-22T11:20:52;21.90;1.00
14401;DHT22;7285;50.894;5.462;2023-06-22T11:23:19;21.80;1.00
14401;DHT22;7285;50.894;5.462;2023-06-22T11:25:46;21.80;99.90
14401;DHT22;7285;50.894;5.462;2023-06-22T11:28:13;21.80;99.90
14401;DHT22;7285;50.894;5.462;2023-06-22T11:30:41;21.80;99.90
14401;DHT22;7285;50.894;5.462;2023-06-22T11:33:08;21.90;99.90
14401;DHT22;7285;50.894;5.462;2023-06-22T11:35:35;22.00;99.90
14401;DHT22;7285;50.894;5.462;2023-06-22T11:38:02;22.10;1.00
14401;DHT22;7285;50.894;5.462;2023-06-22T11:40:30;22.10;28.80
14401;DHT22;7285;50.894;5.462;2023-06-22T11:42:57;22.20;1.00
14401;DHT22;7285;50.894;5.462;2023-06-22T11:45:24;22.30;1.00
14401;DHT22;7285;50.894;5.462;2023-06-22T11:47:52;22.20;99.90
14401;DHT22;7285;50.894;5.462;2023-06-22T11:50:19;22.00;99.90
14401;DHT22;7285;50.894;5.462;2023-06-22T11:52:46;21.80;1.00
14401;DHT22;7285;50.894;5.462;2023-06-22T11:55:13;21.70;1.00
14401;DHT22;7285;50.894;5.462;2023-06-22T11:57:53;21.60;99.90
14401;DHT22;7285;50.894;5.462;2023-06-22T12:00:20;21.40;1.00
14401;DHT22;7285;50.894;5.462;2023-06-22T12:02:49;21.30;1.00
14401;DHT22;7285;50.894;5.462;2023-06-22T12:05:18;21.30;1.00
14401;DHT22;7285;50.894;5.462;2023-06-22T12:07:46;21.40;1.00
14401;DHT22;7285;50.894;5.462;2023-06-22T12:10:12;21.30;1.00
14401;DHT22;7285;50.894;5.462;2023-06-22T12:12:39;21.10;99.90
14401;DHT22;7285;50.894;5.462;2023-06-22T12:15:07;21.20;1.00
14401;DHT22;7285;50.894;5.462;2023-06-22T12:17:34;21.10;99.90
14401;DHT22;7285;50.894;5.462;2023-06-22T12:20:01;21.10;1.00
14401;DHT22;7285;50.894;5.462;2023-06-22T12:22:32;21.10;1.00
14401;DHT22;7285;50.894;5.462;2023-06-22T12:24:59;21.00;1.00
14401;DHT22;7285;50.894;5.462;2023-06-22T12:27:26;20.90;1.00
14401;DHT22;7285;50.894;5.462;2023-06-22T12:29:53;21.00;1.00
14401;DHT22;7285;50.894;5.462;2023-06-22T12:32:20;20.90;3.90
14401;DHT22;7285;50.894;5.462;2023-06-22T12:34:47;20.90;75.00
14401;DHT22;7285;50.894;5.462;2023-06-22T12:37:14;20.90;99.90
14401;DHT22;7285;50.894;5.462;2023-06-22T12:39:42;20.90;99.90
14401;DHT22;7285;50.894;5.462;2023-06-22T12:42:09;20.90;99.90
14401;DHT22;7285;50.894;5.462;2023-06-22T12:44:38;21.00;99.90
14401;DHT22;7285;50.894;5.462;2023-06-22T12:47:05;20.90;99.90
14401;DHT22;7285;50.894;5.462;2023-06-22T12:49:32;20.80;99.90
14401;DHT22;7285;50.894;5.462;2023-06-22T12:51:59;20.80;18.60
14401;DHT22;7285;50.894;5.462;2023-06-22T12:54:26;20.70;1.00
14401;DHT22;7285;50.894;5.462;2023-06-22T12:56:55;20.70;99.90
14401;DHT22;7285;50.894;5.462;2023-06-22T12:59:22;20.60;35.10
14401;DHT22;7285;50.894;5.462;2023-06-22T13:01:49;20.60;75.30
14401;DHT22;7285;50.894;5.462;2023-06-22T13:04:16;20.50;99.90
14401;DHT22;7285;50.894;5.462;2023-06-22T13:06:44;20.40;99.90
14401;DHT22;7285;50.894;5.462;2023-06-22T13:09:14;20.40;99.90
14401;DHT22;7285;50.894;5.462;2023-06-22T13:11:41;20.30;93.30
14401;DHT22;7285;50.894;5.462;2023-06-22T13:14:09;20.30;99.90
14401;DHT22;7285;50.894;5.462;2023-06-22T13:16:37;20.20;99.90
14401;DHT22;7285;50.894;5.462;2023-06-22T13:19:04;20.20;99.90
14401;DHT22;7285;50.894;5.462;2023-06-22T13:21:30;20.20;99.90
14401;DHT22;7285;50.894;5.462;2023-06-22T13:23:59;20.10;99.90
14401;DHT22;7285;50.894;5.462;2023-06-22T13:26:26;20.10;99.90
14401;DHT22;7285;50.894;5.462;2023-06-22T13:28:54;20.10;99.90
14401;DHT22;7285;50.894;5.462;2023-06-22T13:31:22;20.10;99.90
14401;DHT22;7285;50.894;5.462;2023-06-22T13:33:49;20.00;99.90
14401;DHT22;7285;50.894;5.462;2023-06-22T13:36:17;20.00;99.90
14401;DHT22;7285;50.894;5.462;2023-06-22T13:38:45;20.00;99.90
14401;DHT22;7285;50.894;5.462;2023-06-22T13:41:12;19.90;91.50
14401;DHT22;7285;50.894;5.462;2023-06-22T13:43:39;19.90;99.90
14401;DHT22;7285;50.894;5.462;2023-06-22T13:46:06;19.90;99.90
14401;DHT22;7285;50.894;5.462;2023-06-22T13:48:34;19.80;99.90
14401;DHT22;7285;50.894;5.462;2023-06-22T13:51:01;19.90;99.90
14401;DHT22;7285;50.894;5.462;2023-06-22T13:53:28;19.80;1.00
14401;DHT22;7285;50.894;5.462;2023-06-22T13:55:56;19.60;1.00
14401;DHT22;7285;50.894;5.462;2023-06-22T13:58:22;19.50;1.00
14401;DHT22;7285;50.894;5.462;2023-06-22T14:00:49;19.50;3.40
14401;DHT22;7285;50.894;5.462;2023-06-22T14:03:16;19.40;79.90
14401;DHT22;7285;50.894;5.462;2023-06-22T14:05:44;19.30;99.90
14401;DHT22;7285;50.894;5.462;2023-06-22T14:08:12;19.20;99.90
14401;DHT22;7285;50.894;5.462;2023-06-22T14:10:40;19.20;99.90
14401;DHT22;7285;50.894;5.462;2023-06-22T14:13:07;19.00;99.90
14401;DHT22;7285;50.894;5.462;2023-06-22T14:15:34;19.00;99.90
14401;DHT22;7285;50.894;5.462;2023-06-22T14:18:01;19.00;99.90
14401;DHT22;7285;50.894;5.462;2023-06-22T14:20:27;18.90;99.90
14401;DHT22;7285;50.894;5.462;2023-06-22T14:22:56;18.80;99.90
14401;DHT22;7285;50.894;5.462;2023-06-22T14:25:23;18.90;99.90
14401;DHT22;7285;50.894;5.462;2023-06-22T14:27:49;18.90;99.90
14401;DHT22;7285;50.894;5.462;2023-06-22T14:30:18;18.60;99.90
14401;DHT22;7285;50.894;5.462;2023-06-22T14:32:45;18.70;99.90
14401;DHT22;7285;50.894;5.462;2023-06-22T14:35:12;18.50;99.90
14401;DHT22;7285;50.894;5.462;2023-06-22T14:37:39;18.60;99.90
14401;DHT22;7285;50.894;5.462;2023-06-22T14:40:08;18.60;99.90
14401;DHT22;7285;50.894;5.462;2023-06-22T14:42:35;18.50;99.90
14401;DHT22;7285;50.894;5.462;2023-06-22T14:45:03;18.40;99.90
14401;DHT22;7285;50.894;5.462;2023-06-22T14:47:30;18.40;99.90
14401;DHT22;7285;50.894;5.462;2023-06-22T14:49:57;18.20;99.90
14401;DHT22;7285;50.894;5.462;2023-06-22T14:52:25;18.40;99.90
14401;DHT22;7285;50.894;5.462;2023-06-22T14:54:52;18.30;99.90
14401;DHT22;7285;50.894;5.462;2023-06-22T14:57:20;18.20;99.90
14401;DHT22;7285;50.894;5.462;2023-06-22T14:59:48;18.30;99.90
14401;DHT22;7285;50.894;5.462;2023-06-22T15:02:16;18.20;99.90
14401;DHT22;7285;50.894;5.462;2023-06-22T15:04:43;18.10;99.90
14401;DHT22;7285;50.894;5.462;2023-06-22T15:07:10;18.10;99.90
14401;DHT22;7285;50.894;5.462;2023-06-22T15:09:37;18.00;99.90
14401;DHT22;7285;50.894;5.462;2023-06-22T15:12:08;18.00;99.90
14401;DHT22;7285;50.894;5.462;2023-06-22T15:14:39;18.00;99.90
14401;DHT22;7285;50.894;5.462;2023-06-22T15:17:06;18.10;99.90
14401;DHT22;7285;50.894;5.462;2023-06-22T15:19:34;18.00;99.90
14401;DHT22;7285;50.894;5.462;2023-06-22T15:22:03;18.10;99.90
14401;DHT22;7285;50.894;5.462;2023-06-22T15:24:29;17.80;99.90
14401;DHT22;7285;50.894;5.462;2023-06-22T15:26:57;17.80;99.90
14401;DHT22;7285;50.894;5.462;2023-06-22T15:29:24;18.00;99.90
14401;DHT22;7285;50.894;5.462;2023-06-22T15:31:52;17.90;99.90
14401;DHT22;7285;50.894;5.462;2023-06-22T15:34:19;18.00;99.90
14401;DHT22;7285;50.894;5.462;2023-06-22T15:36:46;17.80;99.90
14401;DHT22;7285;50.894;5.462;2023-06-22T15:39:13;18.00;99.90
14401;DHT22;7285;50.894;5.462;2023-06-22T15:41:42;18.00;99.90
14401;DHT22;7285;50.894;5.462;2023-06-22T15:44:09;17.70;99.90
14401;DHT22;7285;50.894;5.462;2023-06-22T15:46:35;18.00;99.90
14401;DHT22;7285;50.894;5.462;2023-06-22T15:49:04;17.90;99.90
14401;DHT22;7285;50.894;5.462;2023-06-22T15:51:31;18.00;99.90
14401;DHT22;7285;50.894;5.462;2023-06-22T15:53:58;17.70;99.90
14401;DHT22;7285;50.894;5.462;2023-06-22T15:56:26;17.70;99.90